createdAt,value
2019-04-05T00:01:26.518Z,7.30
2019-04-05T00:03:53.269Z,7.36
2019-04-05T00:06:19.999Z,7.32
2019-04-05T00:08:46.739Z,7.35
2019-04-05T00:11:18.434Z,7.47
2019-04-05T00:13:45.233Z,7.46
2019-04-05T00:16:11.963Z,7.38
2019-04-05T00:18:38.715Z,7.35
2019-04-05T00:21:05.649Z,7.38
2019-04-05T00:23:32.384Z,7.47
2019-04-05T00:25:59.142Z,7.39
2019-04-05T00:28:28.827Z,7.37
2019-04-05T00:30:55.583Z,7.35
2019-04-05T00:33:25.443Z,7.46
2019-04-05T00:35:52.248Z,7.33
2019-04-05T00:38:19.007Z,7.27
2019-04-05T00:40:45.861Z,7.14
2019-04-05T00:43:12.789Z,7.17
2019-04-05T00:45:41.987Z,7.17
2019-04-05T00:48:10.551Z,7.24
2019-04-05T00:50:37.492Z,7.29
2019-04-05T00:53:04.350Z,7.24
2019-04-05T00:55:33.406Z,7.23
2019-04-05T00:58:00.364Z,7.34
2019-04-05T01:00:27.122Z,7.48
2019-04-05T01:02:53.905Z,7.44
2019-04-05T01:05:20.891Z,7.17
2019-04-05T01:07:48.145Z,6.95
2019-04-05T01:10:15.563Z,6.80
2019-04-05T01:12:42.451Z,6.79
2019-04-05T01:15:09.861Z,6.89
2019-04-05T01:17:36.891Z,5.52
2019-04-05T01:20:08.731Z,7.26
2019-04-05T01:22:38.530Z,7.19
2019-04-05T01:25:05.272Z,6.88
2019-04-05T01:27:32.208Z,6.64
2019-04-05T01:29:58.949Z,6.52
2019-04-05T01:32:26.082Z,6.37
2019-04-05T01:34:52.812Z,6.37
2019-04-05T01:37:19.875Z,6.32
2019-04-05T01:39:46.562Z,6.35
2019-04-05T01:42:13.292Z,6.35
2019-04-05T01:44:40.049Z,6.25
2019-04-05T01:47:06.806Z,6.16
2019-04-05T01:49:33.519Z,6.22
2019-04-05T01:52:00.283Z,6.22
2019-04-05T01:54:29.189Z,6.28
2019-04-05T01:56:55.761Z,6.24
2019-04-05T01:59:22.470Z,6.46
2019-04-05T02:01:49.216Z,6.46
2019-04-05T02:04:15.990Z,6.45
2019-04-05T02:06:42.710Z,6.57
2019-04-05T02:09:09.951Z,6.68
2019-04-05T02:11:36.672Z,6.80
2019-04-05T02:14:03.394Z,6.80
2019-04-05T02:16:30.136Z,6.87
2019-04-05T02:18:57.137Z,6.97
2019-04-05T02:21:24.019Z,6.97
2019-04-05T02:23:50.794Z,7.07
2019-04-05T02:26:17.534Z,7.06
2019-04-05T02:28:44.276Z,7.14
2019-04-05T02:31:11.158Z,7.23
2019-04-05T02:33:37.911Z,7.20
2019-04-05T02:36:04.706Z,7.20
2019-04-05T02:38:31.567Z,7.20
2019-04-05T02:40:59.090Z,7.07
2019-04-05T02:43:26.607Z,7.04
2019-04-05T02:45:53.369Z,7.08
2019-04-05T02:48:20.275Z,7.10
2019-04-05T02:50:48.690Z,7.12
2019-04-05T02:53:15.479Z,7.14
2019-04-05T02:55:42.351Z,7.14
2019-04-05T02:58:10.448Z,7.16
2019-04-05T03:00:37.313Z,7.10
2019-04-05T03:03:04.343Z,7.13
2019-04-05T03:05:31.066Z,7.13
2019-04-05T03:07:57.818Z,7.15
2019-04-05T03:10:54.188Z,7.19
2019-04-05T03:13:21.564Z,6.96
2019-04-05T03:15:48.297Z,6.96
2019-04-05T03:18:15.032Z,6.97
2019-04-05T03:20:41.913Z,6.97
2019-04-05T03:23:09.230Z,6.98
2019-04-05T03:25:36.616Z,7.00
2019-04-05T03:28:03.369Z,7.03
2019-04-05T03:30:30.170Z,7.06
2019-04-05T03:32:57.005Z,7.07
2019-04-05T03:35:23.787Z,6.91
2019-04-05T03:37:50.580Z,6.89
2019-04-05T03:40:17.322Z,7.04
2019-04-05T03:42:44.113Z,7.07
2019-04-05T03:45:11.105Z,7.07
2019-04-05T03:47:37.841Z,7.16
2019-04-05T03:50:05.670Z,7.12
2019-04-05T03:52:32.403Z,7.09
2019-04-05T03:55:00.757Z,7.15
2019-04-05T03:57:27.500Z,7.19
2019-04-05T03:59:54.236Z,7.17
2019-04-05T04:02:23.521Z,7.17
2019-04-05T04:04:49.821Z,7.12
2019-04-05T04:07:19.372Z,7.11
2019-04-05T04:09:46.106Z,7.23
2019-04-05T04:12:12.880Z,7.23
2019-04-05T04:14:39.704Z,7.16
2019-04-05T04:17:12.701Z,7.11
2019-04-05T04:19:35.275Z,7.13
2019-04-05T04:22:22.874Z,7.18
2019-04-05T04:24:49.924Z,7.21
2019-04-05T04:27:16.952Z,7.11
2019-04-05T04:29:43.921Z,7.08
2019-04-05T04:32:10.764Z,7.15
2019-04-05T04:34:37.485Z,7.11
2019-04-05T04:37:04.314Z,7.31
2019-04-05T04:39:31.032Z,7.28
2019-04-05T04:41:59.142Z,7.15
2019-04-05T04:44:29.466Z,7.09
2019-04-05T04:46:56.191Z,7.09
2019-04-05T04:49:22.932Z,7.03
2019-04-05T04:51:49.649Z,7.06
2019-04-05T04:54:16.442Z,6.92
2019-04-05T04:56:43.521Z,7.02
2019-04-05T04:59:10.263Z,7.07
2019-04-05T05:01:39.886Z,6.91
2019-04-05T05:04:08.272Z,6.71
2019-04-05T05:06:35.409Z,6.84
2019-04-05T05:09:04.828Z,6.98
2019-04-05T05:11:33.926Z,7.08
2019-04-05T05:14:01.004Z,7.08
2019-04-05T05:16:28.148Z,7.13
2019-04-05T05:18:55.130Z,7.17
2019-04-05T05:21:22.004Z,7.25
2019-04-05T05:23:48.787Z,7.21
2019-04-05T05:26:15.586Z,7.21
2019-04-05T05:28:43.394Z,7.19
2019-04-05T05:31:11.316Z,7.20
2019-04-05T05:33:38.359Z,7.22
2019-04-05T05:36:05.224Z,7.18
2019-04-05T05:38:32.100Z,7.16
2019-04-05T05:40:59.113Z,7.16
2019-04-05T05:43:26.541Z,7.19
2019-04-05T05:45:53.540Z,7.26
2019-04-05T05:48:20.468Z,7.27
2019-04-05T05:50:47.822Z,7.13
2019-04-05T05:53:14.576Z,7.19
2019-04-05T05:55:41.326Z,7.23
2019-04-05T05:58:08.139Z,7.23
2019-04-05T06:00:34.976Z,7.25
2019-04-05T06:03:01.825Z,7.25
2019-04-05T06:05:28.990Z,7.26
2019-04-05T06:07:56.325Z,7.26
2019-04-05T06:10:23.052Z,7.31
2019-04-05T06:12:50.202Z,7.32
2019-04-05T06:15:16.965Z,7.30
2019-04-05T06:17:43.917Z,7.23
2019-04-05T06:20:11.423Z,7.33
2019-04-05T06:22:38.206Z,7.39
2019-04-05T06:25:04.995Z,7.31
2019-04-05T06:27:31.761Z,7.31
2019-04-05T06:29:58.609Z,7.52
2019-04-05T06:32:25.863Z,7.56
2019-04-05T06:34:52.680Z,7.58
2019-04-05T06:37:19.453Z,7.66
2019-04-05T06:39:46.435Z,7.58
2019-04-05T06:42:14.015Z,7.58
2019-04-05T06:44:40.813Z,7.62
2019-04-05T06:47:07.551Z,7.65
2019-04-05T06:49:34.431Z,7.67
2019-04-05T06:52:01.235Z,7.69
2019-04-05T06:54:28.100Z,7.63
2019-04-05T06:56:55.110Z,7.66
2019-04-05T06:59:22.361Z,7.75
2019-04-05T07:01:49.530Z,7.84
2019-04-05T07:04:16.330Z,7.85
2019-04-05T07:06:43.064Z,7.75
2019-04-05T07:09:13.698Z,7.74
2019-04-05T07:11:40.554Z,7.84
2019-04-05T07:14:08.954Z,7.91
2019-04-05T07:16:35.689Z,7.96
2019-04-05T07:19:02.461Z,7.96
2019-04-05T07:21:29.205Z,7.97
2019-04-05T07:23:56.067Z,8.01
2019-04-05T07:26:22.830Z,8.08
2019-04-05T07:28:51.506Z,8.21
2019-04-05T07:31:18.297Z,8.19
2019-04-05T07:33:45.053Z,8.20
2019-04-05T07:36:12.271Z,8.24
2019-04-05T07:38:39.037Z,8.05
2019-04-05T07:41:09.501Z,7.89
2019-04-05T07:43:36.295Z,7.88
2019-04-05T07:46:03.225Z,8.04
2019-04-05T07:48:44.059Z,8.21
2019-04-05T07:51:01.062Z,8.24
2019-04-05T07:53:27.851Z,8.27
2019-04-05T07:55:54.743Z,8.30
2019-04-05T07:58:24.811Z,8.31
2019-04-05T08:00:53.279Z,8.28
2019-04-05T08:03:20.619Z,8.34
2019-04-05T08:05:53.097Z,8.39
2019-04-05T08:08:32.517Z,8.18
2019-04-05T08:10:59.582Z,8.15
2019-04-05T08:13:27.815Z,8.20
2019-04-05T08:15:54.830Z,8.16
2019-04-05T08:18:21.689Z,8.43
2019-04-05T08:20:48.475Z,8.56
2019-04-05T08:23:15.490Z,8.66
2019-04-05T08:25:42.426Z,8.77
2019-04-05T08:28:09.256Z,8.99
2019-04-05T08:30:38.111Z,8.94
2019-04-05T08:33:05.152Z,9.38
2019-04-05T08:35:32.039Z,9.14
2019-04-05T08:37:58.902Z,9.33
2019-04-05T08:40:25.666Z,9.07
2019-04-05T08:42:52.631Z,8.91
2019-04-05T08:45:19.371Z,9.24
2019-04-05T08:47:46.335Z,9.52
2019-04-05T08:50:15.778Z,9.55
2019-04-05T08:52:43.212Z,9.63
2019-04-05T08:55:10.214Z,9.80
2019-04-05T08:57:38.333Z,9.83
2019-04-05T09:00:07.126Z,9.94
2019-04-05T09:02:37.919Z,10.08
2019-04-05T09:05:04.785Z,10.11
2019-04-05T09:07:33.499Z,10.18
2019-04-05T09:10:00.687Z,10.22
2019-04-05T09:12:27.549Z,10.48
2019-04-05T09:14:54.590Z,10.38
2019-04-05T09:17:32.035Z,10.51
2019-04-05T09:19:59.228Z,10.64
2019-04-05T09:22:26.976Z,10.62
2019-04-05T09:24:53.875Z,10.23
2019-04-05T09:27:23.121Z,10.31
2019-04-05T09:30:05.470Z,10.39
2019-04-05T09:32:32.257Z,10.19
2019-04-05T09:34:59.127Z,10.21
2019-04-05T09:37:26.165Z,9.96
2019-04-05T09:39:52.960Z,9.83
2019-04-05T09:42:21.959Z,9.78
2019-04-05T09:44:48.685Z,9.83
2019-04-05T09:47:15.701Z,10.08
2019-04-05T09:49:42.737Z,10.23
2019-04-05T09:52:11.481Z,9.88
2019-04-05T09:54:38.555Z,9.85
2019-04-05T09:57:07.607Z,9.78
2019-04-05T09:59:34.496Z,10.04
2019-04-05T10:02:01.827Z,10.20
2019-04-05T10:04:31.721Z,10.38
2019-04-05T10:07:02.013Z,10.53
2019-04-05T10:09:28.762Z,10.61
2019-04-05T10:11:55.983Z,10.59
2019-04-05T10:14:26.066Z,10.54
2019-04-05T10:16:52.837Z,10.58
2019-04-05T10:19:50.030Z,10.70
2019-04-05T10:22:16.445Z,10.72
2019-04-05T10:24:43.770Z,10.85
2019-04-05T10:27:10.513Z,10.89
2019-04-05T10:29:37.373Z,10.93
2019-04-05T10:32:04.235Z,10.87
2019-04-05T10:34:32.019Z,10.94
2019-04-05T10:36:58.897Z,11.00
2019-04-05T10:39:25.667Z,10.98
2019-04-05T10:42:03.408Z,10.71
2019-04-05T10:44:21.819Z,10.80
2019-04-05T10:46:48.626Z,10.91
2019-04-05T10:49:15.792Z,11.01
2019-04-05T10:51:45.818Z,11.05
2019-04-05T10:54:13.874Z,11.08
2019-04-05T10:56:41.041Z,11.24
2019-04-05T10:59:07.897Z,11.28
2019-04-05T11:01:34.638Z,11.33
2019-04-05T11:04:03.139Z,11.37
2019-04-05T11:06:30.212Z,11.23
2019-04-05T11:08:59.208Z,11.20
2019-04-05T11:11:26.057Z,11.29
2019-04-05T11:13:53.130Z,11.34
2019-04-05T11:16:20.281Z,11.47
2019-04-05T11:18:47.040Z,11.50
2019-04-05T11:21:16.240Z,11.57
2019-04-05T11:23:43.196Z,11.47
2019-04-05T11:26:10.092Z,11.03
2019-04-05T11:28:37.653Z,10.84
2019-04-05T11:31:06.957Z,10.87
2019-04-05T11:33:36.359Z,10.76
2019-04-05T11:36:05.190Z,10.91
2019-04-05T11:38:38.503Z,11.02
2019-04-05T11:41:05.488Z,11.01
2019-04-05T11:43:33.400Z,11.12
2019-04-05T11:46:04.666Z,11.11
2019-04-05T11:48:31.631Z,11.12
2019-04-05T11:50:58.516Z,11.28
2019-04-05T11:53:25.363Z,11.35
2019-04-05T11:55:52.572Z,11.19
2019-04-05T11:58:21.493Z,11.30
2019-04-05T12:01:06.886Z,11.38
2019-04-05T12:03:35.280Z,11.25
2019-04-05T12:06:02.481Z,11.09
2019-04-05T12:08:29.744Z,11.23
2019-04-05T12:10:57.103Z,11.38
2019-04-05T12:13:24.306Z,11.40
2019-04-05T12:15:51.506Z,11.31
2019-04-05T12:18:19.715Z,11.35
2019-04-05T12:20:55.293Z,11.27
2019-04-05T12:23:15.914Z,11.05
2019-04-05T12:25:43.700Z,11.15
2019-04-05T12:28:10.946Z,11.36
2019-04-05T12:30:39.048Z,11.48
2019-04-05T12:33:13.970Z,11.54
2019-04-05T12:35:37.463Z,11.61
2019-04-05T12:38:06.773Z,11.63
2019-04-05T12:40:32.955Z,11.35
2019-04-05T12:43:00.122Z,11.32
2019-04-05T12:45:27.429Z,11.22
2019-04-05T12:47:54.460Z,11.23
2019-04-05T12:50:21.290Z,11.35
2019-04-05T12:52:48.028Z,11.35
2019-04-05T12:55:15.602Z,11.39
2019-04-05T12:57:48.336Z,11.47
2019-04-05T13:00:14.545Z,11.44
2019-04-05T13:02:41.807Z,11.34
2019-04-05T13:05:10.862Z,11.29
2019-04-05T13:07:39.603Z,11.41
2019-04-05T13:10:09.372Z,11.46
2019-04-05T13:12:37.443Z,11.46
2019-04-05T13:15:12.892Z,11.48
2019-04-05T13:17:36.679Z,11.31
2019-04-05T13:20:04.857Z,11.32
2019-04-05T13:22:33.025Z,11.35
2019-04-05T13:25:00.287Z,11.39
2019-04-05T13:27:29.359Z,11.36
2019-04-05T13:29:56.732Z,11.35
2019-04-05T13:32:25.803Z,11.40
2019-04-05T13:34:53.565Z,11.47
2019-04-05T13:37:22.908Z,11.55
2019-04-05T13:39:49.699Z,11.47
2019-04-05T13:42:16.625Z,11.14
2019-04-05T13:44:43.783Z,11.01
2019-04-05T13:47:10.530Z,10.81
2019-04-05T13:49:38.560Z,10.53
2019-04-05T13:52:07.479Z,10.37
2019-04-05T13:54:35.776Z,10.33
2019-04-05T13:57:03.202Z,10.51
2019-04-05T13:59:38.392Z,10.65
2019-04-05T14:02:06.684Z,10.83
2019-04-05T14:04:34.070Z,10.89
2019-04-05T14:07:03.556Z,10.90
2019-04-05T14:09:31.776Z,10.85
2019-04-05T14:11:58.710Z,10.78
2019-04-05T14:14:28.376Z,10.77
2019-04-05T14:16:55.543Z,10.55
2019-04-05T14:19:23.938Z,10.38
2019-04-05T14:21:53.608Z,10.22
2019-04-05T14:24:24.312Z,10.32
2019-04-05T14:26:54.958Z,10.41
2019-04-05T14:29:21.776Z,10.44
2019-04-05T14:31:48.602Z,10.51
2019-04-05T14:34:23.426Z,10.59
2019-04-05T14:36:50.038Z,10.59
2019-04-05T14:39:35.052Z,10.63
2019-04-05T14:42:09.593Z,10.68
2019-04-05T14:44:30.741Z,10.70
2019-04-05T14:46:58.086Z,10.73
2019-04-05T14:49:30.686Z,10.66
2019-04-05T14:52:01.148Z,10.71
2019-04-05T14:54:30.283Z,10.78
2019-04-05T14:57:02.375Z,10.83
2019-04-05T14:59:28.388Z,10.88
2019-04-05T15:01:55.267Z,10.85
2019-04-05T15:04:23.010Z,10.78
2019-04-05T15:06:50.656Z,10.58
2019-04-05T15:09:21.821Z,7.35
2019-04-05T15:11:49.817Z,10.53
2019-04-05T15:14:19.800Z,10.65
2019-04-05T15:16:46.692Z,10.60
2019-04-05T15:19:13.489Z,10.63
2019-04-05T15:21:40.340Z,10.54
2019-04-05T15:24:09.446Z,10.50
2019-04-05T15:26:36.597Z,10.38
2019-04-05T15:29:03.343Z,10.47
2019-04-05T15:31:32.752Z,10.43
2019-04-05T15:34:02.244Z,10.43
2019-04-05T15:36:29.419Z,10.19
2019-04-05T15:39:01.246Z,10.14
2019-04-05T15:41:30.252Z,10.09
2019-04-05T15:44:00.053Z,10.13
2019-04-05T15:46:27.326Z,10.11
2019-04-05T15:48:54.047Z,10.28
2019-04-05T15:51:22.524Z,10.42
2019-04-05T15:53:53.059Z,10.37
2019-04-05T15:56:20.212Z,10.39
2019-04-05T15:58:52.246Z,10.42
2019-04-05T16:01:25.059Z,10.47
2019-04-05T16:03:51.918Z,10.47
2019-04-05T16:06:20.070Z,10.57
2019-04-05T16:08:47.127Z,10.50
2019-04-05T16:11:16.506Z,10.47
2019-04-05T16:13:48.116Z,10.40
2019-04-05T16:16:15.147Z,10.34
2019-04-05T16:18:42.380Z,10.19
2019-04-05T16:21:09.122Z,10.12
2019-04-05T16:23:38.094Z,10.24
2019-04-05T16:26:09.216Z,10.26
2019-04-05T16:28:36.228Z,10.31
2019-04-05T16:31:10.927Z,10.34
2019-04-05T16:33:38.695Z,10.35
2019-04-05T16:36:05.568Z,10.31
2019-04-05T16:38:33.092Z,10.29
2019-04-05T16:41:02.179Z,10.27
2019-04-05T16:43:29.086Z,10.24
2019-04-05T16:45:55.976Z,10.24
2019-04-05T16:48:22.915Z,10.20
2019-04-05T16:50:49.767Z,10.25
2019-04-05T16:53:16.644Z,10.17
2019-04-05T16:55:43.460Z,10.15
2019-04-05T16:58:10.178Z,10.09
2019-04-05T17:00:36.926Z,8.63
2019-04-05T17:03:07.254Z,10.20
2019-04-05T17:05:34.200Z,10.19
2019-04-05T17:08:03.738Z,10.14
2019-04-05T17:10:30.925Z,10.12
2019-04-05T17:12:57.697Z,10.07
2019-04-05T17:15:24.789Z,10.11
2019-04-05T17:17:51.596Z,10.02
2019-04-05T17:20:18.427Z,9.99
2019-04-05T17:22:57.532Z,10.04
2019-04-05T17:25:13.806Z,10.03
2019-04-05T17:27:40.872Z,10.02
2019-04-05T17:30:07.607Z,10.01
2019-04-05T17:32:42.179Z,10.07
2019-04-05T17:35:14.246Z,10.05
2019-04-05T17:37:41.571Z,10.05
2019-04-05T17:40:08.333Z,10.05
2019-04-05T17:42:35.164Z,10.14
2019-04-05T17:45:02.240Z,10.12
2019-04-05T17:47:29.113Z,10.13
2019-04-05T17:49:56.079Z,10.16
2019-04-05T17:52:22.905Z,10.20
2019-04-05T17:54:49.621Z,10.15
2019-04-05T17:57:16.657Z,9.54
2019-04-05T17:59:46.169Z,10.09
2019-04-05T18:02:13.018Z,10.05
2019-04-05T18:04:40.120Z,10.07
2019-04-05T18:07:06.869Z,10.10
2019-04-05T18:09:33.623Z,10.10
2019-04-05T18:12:02.712Z,10.11
2019-04-05T18:14:30.038Z,10.14
2019-04-05T18:16:56.823Z,10.17
2019-04-05T18:19:23.729Z,10.13
2019-04-05T18:21:50.749Z,10.13
2019-04-05T18:24:17.608Z,10.10
2019-04-05T18:26:44.741Z,10.10
2019-04-05T18:29:11.485Z,10.07
2019-04-05T18:31:39.325Z,10.10
2019-04-05T18:34:08.955Z,10.05
2019-04-05T18:36:35.845Z,10.08
2019-04-05T18:39:04.621Z,10.03
2019-04-05T18:41:31.490Z,9.98
2019-04-05T18:43:58.285Z,9.92
2019-04-05T18:46:25.059Z,9.91
2019-04-05T18:48:55.390Z,9.91
2019-04-05T18:51:25.247Z,9.90
2019-04-05T18:53:52.106Z,9.83
2019-04-05T18:56:18.869Z,9.85
2019-04-05T18:58:45.903Z,9.87
2019-04-05T19:01:13.727Z,9.83
2019-04-05T19:03:43.309Z,9.82
2019-04-05T19:06:10.098Z,9.86
2019-04-05T19:08:39.873Z,9.83
2019-04-05T19:11:06.546Z,9.77
2019-04-05T19:13:33.861Z,9.77
2019-04-05T19:16:01.140Z,9.79
2019-04-05T19:18:28.009Z,9.76
2019-04-05T19:20:58.294Z,9.79
2019-04-05T19:23:25.445Z,9.83
2019-04-05T19:25:52.145Z,9.77
2019-04-05T19:28:19.203Z,9.74
2019-04-05T19:49:15.320Z,9.76
2019-04-05T19:51:42.479Z,9.81
2019-04-05T19:54:12.726Z,9.80
2019-04-05T19:56:39.529Z,9.82
2019-04-05T19:59:13.022Z,9.74
2019-04-05T20:01:39.794Z,9.73
2019-04-05T20:04:06.683Z,9.69
2019-04-05T20:06:33.466Z,9.77
2019-04-05T20:09:00.381Z,9.74
2019-04-05T20:11:28.079Z,9.72
2019-04-05T20:13:55.219Z,9.76
2019-04-05T20:16:26.185Z,9.82
2019-04-05T20:18:52.917Z,9.79
2019-04-05T20:21:19.663Z,9.79
2019-04-05T20:23:47.655Z,9.82
2019-04-05T20:26:14.992Z,9.78
2019-04-05T20:28:43.005Z,8.38
2019-04-05T20:31:09.808Z,9.86
2019-04-05T20:33:36.600Z,9.59
2019-04-05T20:36:03.592Z,9.82
2019-04-05T20:38:30.632Z,9.77
2019-04-05T20:41:03.032Z,9.75
2019-04-05T20:43:29.858Z,9.76
2019-04-05T20:45:57.356Z,9.82
2019-04-05T20:48:24.120Z,9.77
2019-04-05T20:50:51.260Z,9.76
2019-04-05T20:53:21.936Z,9.78
2019-04-05T20:55:49.177Z,9.81
2019-04-05T20:58:15.991Z,9.77
2019-04-05T21:00:42.732Z,9.72
2019-04-05T21:03:09.483Z,9.64
2019-04-05T21:05:36.196Z,9.66
2019-04-05T21:08:03.038Z,9.69
2019-04-05T21:10:29.856Z,9.74
2019-04-05T21:13:00.067Z,9.76
2019-04-05T21:15:27.117Z,9.77
2019-04-05T21:17:53.878Z,9.75
2019-04-05T21:20:20.756Z,9.73
2019-04-05T21:22:50.263Z,9.70
2019-04-05T21:25:17.245Z,9.76
2019-04-05T21:27:46.678Z,9.74
2019-04-05T21:30:14.005Z,9.75
2019-04-05T21:32:40.722Z,9.68
2019-04-05T21:35:09.936Z,9.64
2019-04-05T21:37:36.828Z,9.66
2019-04-05T21:40:04.018Z,9.68
2019-04-05T21:42:32.241Z,9.73
2019-04-05T21:44:59.957Z,9.77
2019-04-05T21:47:27.758Z,9.79
2019-04-05T21:49:56.200Z,9.71
2019-04-05T21:52:26.373Z,9.70
2019-04-05T21:54:53.132Z,9.71
2019-04-05T21:57:22.363Z,9.69
2019-04-05T21:59:49.114Z,9.71
2019-04-05T22:02:15.983Z,9.71
2019-04-05T22:04:42.821Z,9.69
2019-04-05T22:07:11.902Z,9.74
2019-04-05T22:09:38.677Z,9.72
2019-04-05T22:12:05.398Z,9.68
2019-04-05T22:14:40.476Z,9.65
2019-04-05T22:17:07.344Z,9.66
2019-04-05T22:19:34.883Z,9.70
2019-04-05T22:22:02.031Z,9.69
2019-04-05T22:24:28.746Z,9.65
2019-04-05T22:26:55.630Z,9.73
2019-04-05T22:29:25.276Z,9.77
2019-04-05T22:31:53.556Z,9.77
2019-04-05T22:34:23.661Z,9.67
2019-04-05T22:36:50.664Z,9.67
2019-04-05T22:39:17.533Z,9.72
2019-04-05T22:41:44.300Z,9.70
2019-04-05T22:44:11.643Z,9.65
2019-04-05T22:46:38.440Z,9.62
2019-04-05T22:49:05.186Z,9.59
2019-04-05T22:51:32.086Z,9.62
2019-04-05T22:54:00.632Z,9.63
2019-04-05T22:56:27.412Z,9.68
2019-04-05T22:58:54.818Z,9.59
2019-04-05T23:01:21.612Z,9.54
2019-04-05T23:03:48.405Z,9.43
2019-04-05T23:06:15.336Z,9.52
2019-04-05T23:08:43.596Z,9.51
2019-04-05T23:11:14.567Z,9.55
2019-04-05T23:13:41.355Z,9.61
2019-04-05T23:16:10.878Z,9.75
2019-04-05T23:18:37.717Z,9.75
2019-04-05T23:21:04.680Z,9.66
2019-04-05T23:23:31.513Z,9.57
2019-04-05T23:25:58.260Z,9.49
2019-04-05T23:28:25.152Z,9.49
2019-04-05T23:30:52.307Z,9.46
2019-04-05T23:33:19.160Z,9.43
2019-04-05T23:35:49.450Z,9.38
2019-04-05T23:38:16.183Z,9.37
2019-04-05T23:40:43.165Z,9.37
2019-04-05T23:43:09.877Z,9.41
2019-04-05T23:45:36.743Z,9.41
2019-04-05T23:48:03.504Z,9.43
2019-04-05T23:50:30.325Z,9.41
2019-04-05T23:52:57.018Z,9.44
2019-04-05T23:55:32.811Z,9.48
2019-04-05T23:57:52.740Z,9.52
